createdAt,value
2022-08-24T00:01:28.286Z,99.90
2022-08-24T00:03:59.699Z,99.90
2022-08-24T00:06:28.717Z,99.90
2022-08-24T00:08:57.338Z,99.90
2022-08-24T00:11:24.362Z,99.90
2022-08-24T00:13:51.885Z,99.90
2022-08-24T00:16:20.165Z,99.90
2022-08-24T00:18:48.396Z,99.90
2022-08-24T00:21:16.129Z,99.90
2022-08-24T00:23:43.091Z,99.90
2022-08-24T00:26:10.402Z,99.90
2022-08-24T00:28:37.458Z,99.90
2022-08-24T00:31:05.354Z,99.90
2022-08-24T00:33:35.488Z,99.90
2022-08-24T00:36:03.155Z,99.90
2022-08-24T00:38:33.930Z,99.90
2022-08-24T00:41:02.023Z,99.90
2022-08-24T00:43:29.732Z,99.90
2022-08-24T00:46:08.633Z,99.90
2022-08-24T00:48:41.324Z,99.90
2022-08-24T00:51:25.843Z,99.90
2022-08-24T00:54:01.990Z,99.90
2022-08-24T00:56:39.500Z,99.90
2022-08-24T00:59:12.158Z,99.90
2022-08-24T01:01:40.042Z,99.90
2022-08-24T01:04:10.395Z,99.90
2022-08-24T01:06:37.445Z,99.90
2022-08-24T01:09:05.708Z,99.90
2022-08-24T01:11:35.600Z,99.90
2022-08-24T01:14:05.170Z,99.90
2022-08-24T01:16:55.261Z,99.90
2022-08-24T01:19:53.904Z,99.90
2022-08-24T01:22:51.551Z,99.90
2022-08-24T01:25:18.666Z,99.90
2022-08-24T01:27:48.209Z,99.90
2022-08-24T01:30:17.417Z,99.90
2022-08-24T01:32:59.467Z,99.90
2022-08-24T01:35:26.926Z,99.90
2022-08-24T01:37:55.991Z,99.90
2022-08-24T01:40:31.487Z,99.90
2022-08-24T01:42:59.166Z,99.90
2022-08-24T01:45:26.411Z,99.90
2022-08-24T01:47:53.776Z,99.90
2022-08-24T01:50:21.090Z,99.90
2022-08-24T01:53:22.943Z,99.90
2022-08-24T01:55:36.398Z,99.90
2022-08-24T01:58:05.013Z,99.90
2022-08-24T02:00:33.396Z,99.90
2022-08-24T02:03:00.497Z,99.90
2022-08-24T02:05:28.732Z,99.90
2022-08-24T02:07:58.303Z,99.90
2022-08-24T02:10:26.463Z,99.90
2022-08-24T02:13:00.134Z,99.90
2022-08-24T02:15:38.080Z,99.90
2022-08-24T02:18:06.152Z,99.90
2022-08-24T02:20:41.949Z,99.90
2022-08-24T02:23:09.099Z,99.90
2022-08-24T02:25:36.246Z,99.90
2022-08-24T02:28:03.983Z,99.90
2022-08-24T02:30:31.662Z,99.90
2022-08-24T02:32:59.232Z,99.90
2022-08-24T02:35:28.108Z,99.90
2022-08-24T02:37:55.271Z,99.90
2022-08-24T02:40:22.895Z,99.90
2022-08-24T02:42:50.555Z,99.90
2022-08-24T02:45:18.002Z,99.90
2022-08-24T02:47:45.706Z,99.90
2022-08-24T02:50:15.348Z,99.90
2022-08-24T02:52:44.025Z,99.90
2022-08-24T02:55:15.773Z,99.90
2022-08-24T02:57:47.958Z,99.90
2022-08-24T03:00:19.314Z,99.90
2022-08-24T03:02:51.665Z,99.90
2022-08-24T03:05:19.901Z,99.90
2022-08-24T03:07:46.973Z,99.90
2022-08-24T03:10:14.478Z,99.90
2022-08-24T03:12:41.755Z,99.90
2022-08-24T03:15:11.408Z,99.90
2022-08-24T03:17:39.945Z,99.90
2022-08-24T03:20:14.439Z,99.90
2022-08-24T03:22:42.037Z,99.90
2022-08-24T03:25:10.971Z,99.90
2022-08-24T03:27:38.211Z,99.90
2022-08-24T03:30:07.717Z,99.90
2022-08-24T03:32:35.202Z,99.90
2022-08-24T03:35:04.377Z,99.90
2022-08-24T03:37:32.839Z,99.90
2022-08-24T03:40:00.676Z,99.90
2022-08-24T03:42:27.849Z,99.90
2022-08-24T03:44:55.210Z,99.90
2022-08-24T03:47:23.171Z,99.90
2022-08-24T03:49:51.652Z,99.90
2022-08-24T03:52:18.587Z,99.90
2022-08-24T03:54:45.735Z,99.90
2022-08-24T03:57:13.823Z,99.90
2022-08-24T03:59:46.343Z,99.90
2022-08-24T04:02:14.703Z,99.90
2022-08-24T04:04:41.954Z,99.90
2022-08-24T04:07:11.279Z,99.90
2022-08-24T04:09:39.431Z,99.90
2022-08-24T04:12:07.885Z,99.90
2022-08-24T04:14:36.155Z,99.90
2022-08-24T04:17:10.503Z,99.90
2022-08-24T04:19:57.472Z,99.90
2022-08-24T04:22:30.609Z,99.90
2022-08-24T04:24:57.968Z,99.90
2022-08-24T04:27:27.164Z,99.90
2022-08-24T04:29:54.208Z,99.90
2022-08-24T04:32:23.021Z,99.90
2022-08-24T04:34:50.617Z,99.90
2022-08-24T04:37:17.784Z,99.90
2022-08-24T04:39:51.901Z,99.90
2022-08-24T04:42:33.389Z,99.90
2022-08-24T04:45:01.649Z,99.90
2022-08-24T04:47:28.780Z,99.90
2022-08-24T04:49:55.675Z,99.90
2022-08-24T04:52:23.262Z,99.90
2022-08-24T04:54:50.430Z,99.90
2022-08-24T04:57:21.736Z,99.90
2022-08-24T04:59:49.296Z,99.90
2022-08-24T05:02:17.036Z,99.90
2022-08-24T05:04:48.304Z,99.90
2022-08-24T05:07:15.254Z,99.90
2022-08-24T05:09:44.364Z,99.90
2022-08-24T05:12:12.220Z,99.90
2022-08-24T05:14:46.000Z,99.90
2022-08-24T05:17:13.214Z,99.90
2022-08-24T05:19:40.437Z,99.90
2022-08-24T05:22:08.094Z,99.90
2022-08-24T05:24:37.668Z,99.90
2022-08-24T05:27:05.034Z,99.90
2022-08-24T05:29:35.802Z,99.90
2022-08-24T05:32:04.141Z,99.90
2022-08-24T05:34:31.715Z,99.90
2022-08-24T05:36:58.857Z,99.90
2022-08-24T05:39:46.195Z,99.90
2022-08-24T05:42:14.297Z,99.90
2022-08-24T05:44:47.371Z,99.90
2022-08-24T05:47:18.129Z,99.90
2022-08-24T05:49:46.117Z,99.90
2022-08-24T05:52:13.387Z,99.90
2022-08-24T05:54:40.874Z,99.90
2022-08-24T05:57:10.568Z,99.90
2022-08-24T05:59:49.324Z,99.90
2022-08-24T06:02:18.883Z,99.90
2022-08-24T06:04:46.299Z,99.90
2022-08-24T06:07:14.030Z,99.90
2022-08-24T06:09:45.516Z,99.90
2022-08-24T06:12:13.024Z,99.90
2022-08-24T06:14:46.182Z,99.90
2022-08-24T06:17:13.488Z,99.90
2022-08-24T06:19:40.822Z,99.90
2022-08-24T06:22:08.469Z,99.90
2022-08-24T06:24:58.878Z,99.90
2022-08-24T06:27:27.100Z,99.90
2022-08-24T06:29:58.929Z,99.90
2022-08-24T06:32:45.717Z,99.90
2022-08-24T06:35:32.952Z,99.90
2022-08-24T06:38:00.226Z,99.90
2022-08-24T06:40:27.699Z,99.90
2022-08-24T06:42:55.173Z,99.90
2022-08-24T06:45:33.332Z,99.90
2022-08-24T06:48:00.999Z,99.90
2022-08-24T06:50:28.865Z,99.90
2022-08-24T06:52:56.511Z,99.90
2022-08-24T06:55:25.372Z,99.90
2022-08-24T06:57:52.879Z,99.90
2022-08-24T07:00:21.388Z,99.90
2022-08-24T07:02:48.707Z,99.90
2022-08-24T07:05:18.248Z,99.90
2022-08-24T07:08:17.699Z,99.90
2022-08-24T07:10:44.963Z,99.90
2022-08-24T07:13:13.614Z,99.90
2022-08-24T07:15:44.759Z,99.90
2022-08-24T07:18:16.177Z,99.90
2022-08-24T07:20:48.115Z,99.90
2022-08-24T07:23:41.518Z,99.90
2022-08-24T07:26:21.806Z,99.90
2022-08-24T07:29:01.177Z,99.90
2022-08-24T07:31:36.697Z,99.80
2022-08-24T07:34:12.553Z,99.60
2022-08-24T07:36:44.630Z,99.60
2022-08-24T07:39:12.593Z,99.00
2022-08-24T07:44:31.780Z,95.20
2022-08-24T07:47:07.220Z,93.80
2022-08-24T07:49:46.656Z,91.90
2022-08-24T07:52:13.989Z,90.40
2022-08-24T07:54:41.265Z,89.40
2022-08-24T07:57:08.653Z,88.90
2022-08-24T07:59:37.035Z,87.20
2022-08-24T08:02:05.637Z,87.50
2022-08-24T08:04:32.682Z,85.60
2022-08-24T08:07:03.293Z,82.70
2022-08-24T08:09:39.460Z,80.20
2022-08-24T08:12:09.151Z,79.00
2022-08-24T08:14:38.445Z,80.30
2022-08-24T08:17:07.447Z,81.00
2022-08-24T08:19:35.281Z,80.00
2022-08-24T08:22:22.318Z,80.40
2022-08-24T08:25:19.301Z,76.60
2022-08-24T08:27:47.175Z,75.80
2022-08-24T08:30:14.859Z,76.90
2022-08-24T08:32:42.575Z,77.10
2022-08-24T08:35:10.181Z,79.70
2022-08-24T08:37:37.947Z,79.30
2022-08-24T08:40:12.557Z,78.80
2022-08-24T08:43:06.349Z,77.70
2022-08-24T08:45:44.191Z,76.80
2022-08-24T08:49:08.327Z,74.10
2022-08-24T08:51:56.905Z,72.50
2022-08-24T08:54:38.836Z,72.10
2022-08-24T08:57:46.462Z,73.60
2022-08-24T09:00:19.036Z,68.80
2022-08-24T09:03:21.747Z,68.30
2022-08-24T09:06:42.515Z,66.50
2022-08-24T09:09:33.059Z,65.80
2022-08-24T09:12:44.256Z,67.50
2022-08-24T09:15:26.323Z,68.00
2022-08-24T09:18:14.400Z,68.70
2022-08-24T09:20:47.578Z,69.80
2022-08-24T09:23:39.885Z,68.70
2022-08-24T09:26:19.072Z,67.80
2022-08-24T09:29:03.702Z,65.50
2022-08-24T09:32:03.851Z,64.00
2022-08-24T09:34:54.455Z,62.20
2022-08-24T09:37:32.773Z,56.80
2022-08-24T09:40:17.271Z,56.70
2022-08-24T09:43:10.587Z,54.10
2022-08-24T09:46:02.021Z,52.10
2022-08-24T09:49:19.907Z,49.70
2022-08-24T09:52:11.572Z,50.50
2022-08-24T09:54:59.396Z,50.80
2022-08-24T09:57:50.224Z,44.40
2022-08-24T10:00:20.628Z,46.20
2022-08-24T10:03:07.157Z,40.90
2022-08-24T10:05:54.602Z,38.20
2022-08-24T10:08:34.151Z,35.30
2022-08-24T10:11:25.266Z,34.10
2022-08-24T10:14:25.846Z,28.80
2022-08-24T10:17:20.625Z,30.80
2022-08-24T10:19:58.243Z,22.80
2022-08-24T10:22:50.064Z,19.50
2022-08-24T10:25:22.810Z,18.70
2022-08-24T10:28:27.747Z,17.60
2022-08-24T10:31:19.129Z,20.30
2022-08-24T10:34:18.555Z,18.30
2022-08-24T10:37:10.220Z,19.40
2022-08-24T10:40:01.999Z,19.10
2022-08-24T10:43:26.802Z,24.20
2022-08-24T10:46:21.315Z,13.30
2022-08-24T10:48:54.017Z,10.30
2022-08-24T10:51:25.999Z,8.30
2022-08-24T10:53:54.735Z,10.10
2022-08-24T10:56:47.702Z,13.10
2022-08-24T10:59:40.636Z,10.80
2022-08-24T11:02:31.193Z,10.70
2022-08-24T11:05:00.712Z,18.50
2022-08-24T11:07:28.888Z,15.30
2022-08-24T11:10:00.084Z,9.30
2022-08-24T11:12:27.316Z,11.80
2022-08-24T11:14:58.326Z,10.60
2022-08-24T11:17:27.660Z,10.40
2022-08-24T11:19:55.145Z,6.30
2022-08-24T11:22:41.118Z,9.50
2022-08-24T11:25:18.940Z,7.10
2022-08-24T11:27:53.241Z,6.60
2022-08-24T11:30:20.186Z,8.60
2022-08-24T11:32:58.959Z,5.40
2022-08-24T11:35:35.053Z,3.20
2022-08-24T11:38:14.051Z,3.10
2022-08-24T11:40:43.498Z,1.00
2022-08-24T11:43:28.635Z,1.00
2022-08-24T11:46:14.167Z,1.00
2022-08-24T11:49:07.918Z,1.00
2022-08-24T11:51:50.830Z,1.00
2022-08-24T11:54:44.342Z,1.00
2022-08-24T11:57:47.547Z,1.00
2022-08-24T12:00:18.803Z,1.00
2022-08-24T12:03:05.735Z,1.00
2022-08-24T12:05:53.314Z,1.00
2022-08-24T12:08:42.070Z,1.00
2022-08-24T12:11:43.042Z,2.80
2022-08-24T12:14:34.354Z,2.70
2022-08-24T12:17:09.373Z,4.60
2022-08-24T12:19:48.467Z,4.30
2022-08-24T12:22:16.849Z,3.20
2022-08-24T12:24:48.304Z,3.10
2022-08-24T12:27:26.383Z,1.00
2022-08-24T12:30:07.625Z,1.00
2022-08-24T12:32:47.842Z,1.00
2022-08-24T12:35:42.586Z,1.00
2022-08-24T12:38:27.538Z,1.00
2022-08-24T12:41:14.550Z,1.00
2022-08-24T12:43:59.924Z,1.00
2022-08-24T12:46:27.218Z,1.00
2022-08-24T12:49:02.624Z,1.00
2022-08-24T12:52:08.403Z,1.00
2022-08-24T12:55:14.345Z,1.00
2022-08-24T12:58:31.466Z,1.00
2022-08-24T13:01:05.854Z,1.00
2022-08-24T13:03:43.720Z,1.00
2022-08-24T13:06:20.146Z,1.00
2022-08-24T13:08:50.888Z,1.00
2022-08-24T13:11:24.310Z,1.00
2022-08-24T13:13:54.618Z,1.00
2022-08-24T13:16:43.547Z,1.00
2022-08-24T13:19:16.022Z,1.00
2022-08-24T13:21:47.962Z,1.00
2022-08-24T13:24:32.789Z,1.00
2022-08-24T13:27:12.168Z,1.00
2022-08-24T13:29:50.018Z,1.00
2022-08-24T13:32:31.319Z,1.00
2022-08-24T13:34:59.663Z,1.00
2022-08-24T13:37:28.783Z,1.00
2022-08-24T13:40:03.451Z,1.00
2022-08-24T13:42:39.624Z,1.00
2022-08-24T13:45:25.535Z,1.00
2022-08-24T13:48:38.305Z,1.00
2022-08-24T13:51:20.818Z,1.00
2022-08-24T13:54:26.457Z,1.00
2022-08-24T13:57:09.165Z,1.00
2022-08-24T14:00:15.418Z,1.00
2022-08-24T14:02:57.795Z,1.00
2022-08-24T14:05:43.428Z,1.00
2022-08-24T14:08:38.017Z,1.00
2022-08-24T14:11:23.553Z,1.00
2022-08-24T14:14:21.128Z,1.00
2022-08-24T14:17:42.021Z,1.00
2022-08-24T14:20:14.466Z,1.00
2022-08-24T14:23:21.843Z,1.00
2022-08-24T14:25:49.983Z,1.00
2022-08-24T14:28:35.250Z,1.00
2022-08-24T14:31:21.700Z,1.00
2022-08-24T14:34:13.530Z,1.00
2022-08-24T14:37:29.119Z,1.00
2022-08-24T14:40:23.490Z,1.00
2022-08-24T14:42:56.757Z,1.00
2022-08-24T14:45:42.682Z,1.00
2022-08-24T14:48:41.454Z,1.00
2022-08-24T14:51:20.761Z,1.00
2022-08-24T14:53:59.840Z,1.00
2022-08-24T14:56:45.358Z,1.00
2022-08-24T14:59:34.656Z,1.00
2022-08-24T15:02:16.338Z,1.00
2022-08-24T15:04:51.117Z,1.00
2022-08-24T15:07:25.617Z,1.00
2022-08-24T15:09:53.997Z,1.00
2022-08-24T15:12:44.212Z,1.00
2022-08-24T15:15:31.862Z,1.00
2022-08-24T15:18:21.666Z,1.00
2022-08-24T15:20:57.736Z,1.00
2022-08-24T15:23:31.126Z,1.00
2022-08-24T15:26:06.058Z,1.00
2022-08-24T15:28:34.105Z,1.00
2022-08-24T15:31:10.807Z,1.00
2022-08-24T15:33:57.795Z,1.00
2022-08-24T15:36:25.601Z,1.00
2022-08-24T15:38:52.870Z,1.00
2022-08-24T15:41:32.344Z,1.00
2022-08-24T15:44:26.711Z,1.00
2022-08-24T15:47:12.562Z,1.00
2022-08-24T15:49:51.099Z,1.00
2022-08-24T15:52:39.080Z,1.00
2022-08-24T15:55:10.777Z,1.00
2022-08-24T15:57:44.300Z,1.00
2022-08-24T16:00:40.439Z,1.00
2022-08-24T16:03:47.535Z,1.00
2022-08-24T16:06:23.087Z,1.00
2022-08-24T16:08:59.206Z,1.00
2022-08-24T16:11:34.498Z,1.00
2022-08-24T16:14:03.189Z,1.00
2022-08-24T16:16:35.305Z,1.00
2022-08-24T16:19:08.582Z,1.00
2022-08-24T16:21:51.661Z,1.00
2022-08-24T16:24:21.785Z,1.00
2022-08-24T16:26:49.271Z,1.00
2022-08-24T16:29:36.989Z,1.00
2022-08-24T16:32:21.650Z,1.00
2022-08-24T16:35:10.914Z,1.00
2022-08-24T16:37:39.402Z,1.00
2022-08-24T16:40:08.567Z,1.00
2022-08-24T16:42:36.731Z,1.00
2022-08-24T16:45:09.746Z,1.00
2022-08-24T16:47:37.036Z,1.00
2022-08-24T16:50:05.972Z,1.00
2022-08-24T16:52:33.032Z,1.00
2022-08-24T16:55:01.520Z,1.00
2022-08-24T16:57:31.039Z,1.00
2022-08-24T16:59:58.478Z,1.00
2022-08-24T17:02:28.626Z,1.00
2022-08-24T17:04:56.230Z,1.20
2022-08-24T17:07:26.165Z,1.90
2022-08-24T17:09:55.970Z,3.20
2022-08-24T17:12:23.791Z,4.20
2022-08-24T17:14:50.999Z,4.10
2022-08-24T17:17:21.564Z,4.90
2022-08-24T17:19:54.264Z,6.10
2022-08-24T17:22:25.547Z,6.50
2022-08-24T17:24:52.765Z,7.20
2022-08-24T17:27:30.702Z,7.70
2022-08-24T17:29:59.601Z,8.50
2022-08-24T17:32:26.937Z,9.50
2022-08-24T17:34:54.111Z,9.00
2022-08-24T17:37:21.276Z,9.50
2022-08-24T17:39:55.050Z,9.60
2022-08-24T17:42:49.653Z,10.30
2022-08-24T17:45:13.402Z,10.80
2022-08-24T17:47:43.229Z,11.50
2022-08-24T17:50:14.365Z,11.80
2022-08-24T17:52:41.755Z,12.10
2022-08-24T17:55:10.957Z,12.80
2022-08-24T17:57:38.456Z,13.50
2022-08-24T18:00:10.053Z,14.30
2022-08-24T18:02:41.558Z,13.50
2022-08-24T18:05:10.335Z,13.50
2022-08-24T18:07:52.674Z,14.40
2022-08-24T18:10:27.822Z,13.80
2022-08-24T18:12:57.913Z,15.40
2022-08-24T18:15:34.721Z,14.70
2022-08-24T18:18:08.805Z,15.80
2022-08-24T18:20:39.602Z,18.90
2022-08-24T18:23:11.528Z,19.30
2022-08-24T18:25:47.375Z,19.10
2022-08-24T18:28:15.200Z,18.60
2022-08-24T18:30:44.395Z,19.70
2022-08-24T18:33:11.977Z,20.70
2022-08-24T18:35:38.930Z,21.30
2022-08-24T18:38:05.950Z,21.40
2022-08-24T18:40:33.647Z,21.90
2022-08-24T18:43:03.545Z,21.70
2022-08-24T18:45:33.024Z,22.10
2022-08-24T18:48:00.179Z,23.20
2022-08-24T18:50:30.691Z,23.00
2022-08-24T18:52:58.374Z,23.60
2022-08-24T18:55:26.876Z,24.70
2022-08-24T18:57:54.365Z,25.20
2022-08-24T19:00:21.456Z,25.40
2022-08-24T19:02:48.662Z,26.10
2022-08-24T19:05:21.615Z,28.00
2022-08-24T19:07:51.635Z,27.50
2022-08-24T19:10:22.026Z,29.60
2022-08-24T19:12:55.949Z,31.20
2022-08-24T19:15:37.775Z,34.20
2022-08-24T19:18:08.330Z,34.50
2022-08-24T19:20:35.764Z,35.90
2022-08-24T19:23:09.527Z,35.70
2022-08-24T19:25:38.532Z,37.60
2022-08-24T19:28:06.209Z,38.90
2022-08-24T19:30:33.459Z,40.90
2022-08-24T19:33:02.280Z,40.90
2022-08-24T19:35:32.993Z,40.20
2022-08-24T19:38:00.380Z,43.30
2022-08-24T19:40:28.491Z,45.60
2022-08-24T19:42:57.299Z,46.90
2022-08-24T19:45:45.258Z,50.70
2022-08-24T19:48:13.184Z,53.10
2022-08-24T19:50:41.039Z,54.80
2022-08-24T19:53:10.257Z,57.00
2022-08-24T19:55:37.452Z,58.10
2022-08-24T19:58:19.738Z,59.80
2022-08-24T20:01:06.400Z,60.50
2022-08-24T20:03:33.656Z,61.30
2022-08-24T20:06:00.817Z,62.20
2022-08-24T20:08:27.888Z,62.40
2022-08-24T20:10:59.084Z,65.70
2022-08-24T20:13:26.996Z,68.40
2022-08-24T20:15:55.567Z,68.90
2022-08-24T20:18:29.393Z,69.30
2022-08-24T20:20:56.754Z,68.90
2022-08-24T20:23:25.467Z,69.80
2022-08-24T20:25:54.687Z,69.50
2022-08-24T20:28:29.188Z,69.80
2022-08-24T20:30:56.845Z,70.00
2022-08-24T20:33:24.855Z,70.00
2022-08-24T20:35:51.898Z,69.90
2022-08-24T20:38:20.830Z,71.40
2022-08-24T20:40:49.152Z,71.90
2022-08-24T20:43:16.769Z,72.10
2022-08-24T20:45:43.915Z,72.90
2022-08-24T20:48:12.780Z,73.40
2022-08-24T20:50:44.769Z,75.30
2022-08-24T20:53:12.169Z,75.30
2022-08-24T20:55:41.304Z,75.40
2022-08-24T20:58:09.391Z,75.80
2022-08-24T21:00:36.911Z,75.20
2022-08-24T21:03:04.399Z,76.10
2022-08-24T21:05:31.573Z,76.50
2022-08-24T21:07:59.172Z,76.20
2022-08-24T21:10:27.197Z,76.10
2022-08-24T21:12:55.178Z,77.10
2022-08-24T21:15:25.272Z,77.30
2022-08-24T21:17:52.581Z,78.10
2022-08-24T21:20:20.493Z,78.10
2022-08-24T21:22:48.445Z,78.60
2022-08-24T21:25:19.901Z,78.90
2022-08-24T21:27:48.574Z,78.20
2022-08-24T21:30:20.704Z,79.10
2022-08-24T21:33:06.717Z,79.80
2022-08-24T21:35:35.058Z,81.00
2022-08-24T21:38:02.265Z,81.60
2022-08-24T21:40:29.594Z,82.10
2022-08-24T21:42:56.915Z,81.70
2022-08-24T21:45:25.345Z,82.50
2022-08-24T21:47:53.485Z,82.60
2022-08-24T21:50:20.871Z,83.10
2022-08-24T21:52:53.958Z,83.30
2022-08-24T21:55:21.902Z,84.00
2022-08-24T21:57:49.853Z,84.30
2022-08-24T22:00:18.680Z,84.50
2022-08-24T22:02:48.029Z,84.50
2022-08-24T22:05:16.327Z,84.50
2022-08-24T22:07:43.918Z,84.90
2022-08-24T22:10:12.470Z,84.90
2022-08-24T22:12:42.596Z,85.40
2022-08-24T22:15:13.026Z,85.70
2022-08-24T22:17:40.179Z,85.90
2022-08-24T22:20:08.987Z,86.40
2022-08-24T22:22:48.692Z,87.10
2022-08-24T22:25:15.799Z,87.20
2022-08-24T22:27:44.522Z,87.20
2022-08-24T22:30:15.279Z,87.70
2022-08-24T22:32:42.320Z,87.80
2022-08-24T22:35:09.690Z,87.60
2022-08-24T22:37:36.740Z,88.10
2022-08-24T22:40:05.632Z,88.60
2022-08-24T22:42:32.773Z,88.50
2022-08-24T22:45:01.467Z,89.20
2022-08-24T22:47:28.510Z,89.20
2022-08-24T22:49:55.566Z,90.20
2022-08-24T22:52:22.812Z,89.30
2022-08-24T22:54:49.911Z,89.60
2022-08-24T22:57:17.677Z,89.50
2022-08-24T22:59:46.991Z,89.40
2022-08-24T23:02:16.661Z,89.50
2022-08-24T23:04:47.172Z,90.20
2022-08-24T23:07:14.897Z,90.80
2022-08-24T23:09:44.545Z,91.40
2022-08-24T23:12:16.519Z,91.80
2022-08-24T23:14:43.609Z,92.40
2022-08-24T23:17:11.152Z,92.90
2022-08-24T23:19:56.633Z,92.90
2022-08-24T23:22:23.753Z,93.30
2022-08-24T23:24:52.947Z,93.30
2022-08-24T23:27:20.375Z,93.60
2022-08-24T23:29:48.600Z,93.40
2022-08-24T23:32:17.921Z,93.90
2022-08-24T23:34:47.897Z,93.70
2022-08-24T23:37:16.952Z,93.80
2022-08-24T23:39:44.215Z,93.70
2022-08-24T23:42:11.411Z,94.00
2022-08-24T23:44:39.098Z,94.20
2022-08-24T23:47:07.074Z,94.30
2022-08-24T23:49:34.494Z,94.60
2022-08-24T23:52:02.017Z,94.70
2022-08-24T23:54:29.300Z,95.20
2022-08-24T23:56:57.439Z,95.20
2022-08-24T23:59:29.416Z,95.10
